Time,TemperatureF,DewpointF,PressureIn,WindDirection,WindDirectionDegrees,WindSpeedMPH,WindSpeedGustMPH,Humidity,HourlyPrecipIn,Conditions,Clouds,dailyrainin,SoftwareType,DateUTC
2013-06-17 00:00:00,78.6,74.7,30.08,East,80,1.0,4.0,88,0.00,,,0.00,Weather View 32 v70,2013-06-17 04:00:00,
2013-06-17 00:10:00,78.5,75.0,30.08,East,89,0.0,4.0,89,0.00,,,0.00,Weather View 32 v70,2013-06-17 04:10:00,
2013-06-17 00:20:00,78.5,75.0,30.08,East,85,1.0,4.0,89,0.00,,,0.00,Weather View 32 v70,2013-06-17 04:20:00,
2013-06-17 00:30:00,78.4,74.5,30.07,ESE,102,1.0,4.0,88,0.00,,,0.00,Weather View 32 v70,2013-06-17 04:30:00,
2013-06-17 00:40:00,78.3,74.8,30.07,East,84,3.0,4.0,89,0.00,,,0.00,Weather View 32 v70,2013-06-17 04:40:00,
2013-06-17 00:45:00,78.3,74.8,30.07,East,84,3.0,4.0,89,0.00,,,0.00,Weather View 32 v70,2013-06-17 04:45:00,
2013-06-17 00:50:00,78.2,75.0,30.06,ENE,70,0.0,4.0,90,0.00,,,0.00,Weather View 32 v70,2013-06-17 04:50:00,
2013-06-17 01:00:00,78.0,74.8,30.06,ENE,72,3.0,4.0,90,0.00,,,0.00,Weather View 32 v70,2013-06-17 05:00:00,
2013-06-17 01:10:00,78.1,74.9,30.06,ESE,109,0.0,4.0,90,0.00,,,0.00,Weather View 32 v70,2013-06-17 05:10:00,
2013-06-17 01:20:00,78.4,75.2,30.06,ESE,111,1.0,4.0,90,0.00,,,0.00,Weather View 32 v70,2013-06-17 05:20:00,
2013-06-17 01:30:00,78.6,75.4,30.06,ESE,119,0.0,4.0,90,0.00,,,0.00,Weather View 32 v70,2013-06-17 05:30:00,
2013-06-17 01:40:00,78.6,75.1,30.06,ESE,116,0.0,4.0,89,0.00,,,0.00,Weather View 32 v70,2013-06-17 05:40:00,
2013-06-17 01:46:00,78.6,75.1,30.06,ESE,116,0.0,4.0,89,0.00,,,0.00,Weather View 32 v70,2013-06-17 05:46:00,
2013-06-17 02:00:00,78.4,75.2,30.06,East,87,2.0,4.0,90,0.00,,,0.00,Weather View 32 v70,2013-06-17 06:00:00,
2013-06-17 02:10:00,78.3,75.1,30.05,East,88,0.0,4.0,90,0.00,,,0.00,Weather View 32 v70,2013-06-17 06:10:00,
2013-06-17 02:20:00,78.1,74.9,30.05,East,88,0.0,4.0,90,0.00,,,0.00,Weather View 32 v70,2013-06-17 06:20:00,
2013-06-17 02:30:00,78.0,74.8,30.05,East,80,1.0,4.0,90,0.00,,,0.00,Weather View 32 v70,2013-06-17 06:30:00,
2013-06-17 02:40:00,78.1,74.9,30.04,East,86,1.0,5.0,90,0.00,,,0.00,Weather View 32 v70,2013-06-17 06:40:00,
2013-06-17 02:46:00,78.1,74.9,30.04,East,86,1.0,5.0,90,0.00,,,0.00,Weather View 32 v70,2013-06-17 06:46:00,
2013-06-17 02:50:00,78.0,74.8,30.04,East,85,1.0,5.0,90,0.00,,,0.00,Weather View 32 v70,2013-06-17 06:50:00,
2013-06-17 03:00:00,78.0,74.8,30.03,ESE,105,1.0,5.0,90,0.00,,,0.00,Weather View 32 v70,2013-06-17 07:00:00,
2013-06-17 03:10:00,78.1,75.2,30.02,East,95,1.0,5.0,91,0.00,,,0.00,Weather View 32 v70,2013-06-17 07:10:00,
2013-06-17 03:20:00,78.0,75.1,30.02,East,101,0.0,5.0,91,0.00,,,0.00,Weather View 32 v70,2013-06-17 07:20:00,
2013-06-17 03:30:00,78.1,75.2,30.02,ESE,110,1.0,5.0,91,0.00,,,0.00,Weather View 32 v70,2013-06-17 07:30:00,
2013-06-17 03:40:00,78.2,75.7,30.02,SE,141,3.0,3.0,92,0.00,,,0.00,Weather View 32 v70,2013-06-17 07:40:00,
2013-06-17 03:47:00,78.2,75.7,30.02,SE,141,3.0,3.0,92,0.00,,,0.00,Weather View 32 v70,2013-06-17 07:47:00,
2013-06-17 03:50:00,78.1,75.6,30.01,SSE,155,5.0,5.0,92,0.00,,,0.00,Weather View 32 v70,2013-06-17 07:50:00,
2013-06-17 04:00:00,78.0,75.1,30.01,SE,137,2.0,7.0,91,0.00,,,0.00,Weather View 32 v70,2013-06-17 08:00:00,
2013-06-17 04:10:00,78.1,75.6,30.01,ESE,108,2.0,7.0,92,0.00,,,0.00,Weather View 32 v70,2013-06-17 08:10:00,
2013-06-17 04:20:00,77.9,75.4,30.01,East,96,1.0,7.0,92,0.00,,,0.00,Weather View 32 v70,2013-06-17 08:20:00,
2013-06-17 04:30:00,77.7,75.2,30.01,ESE,107,1.0,7.0,92,0.00,,,0.00,Weather View 32 v70,2013-06-17 08:30:00,
2013-06-17 04:40:00,77.8,75.6,30.01,ESE,107,1.0,7.0,93,0.00,,,0.00,Weather View 32 v70,2013-06-17 08:40:00,
2013-06-17 04:47:00,77.8,75.6,30.01,ESE,107,1.0,7.0,93,0.00,,,0.00,Weather View 32 v70,2013-06-17 08:47:00,
2013-06-17 04:50:00,77.5,75.0,30.01,East,85,1.0,7.0,92,0.00,,,0.00,Weather View 32 v70,2013-06-17 08:50:00,
2013-06-17 05:00:00,77.4,75.2,30.01,East,85,0.0,4.0,93,0.00,,,0.00,Weather View 32 v70,2013-06-17 09:00:00,
2013-06-17 05:10:00,77.6,75.4,30.01,ESE,109,0.0,3.0,93,0.00,,,0.00,Weather View 32 v70,2013-06-17 09:10:00,
2013-06-17 05:20:00,77.7,75.5,30.01,ESE,106,0.0,3.0,93,0.00,,,0.00,Weather View 32 v70,2013-06-17 09:20:00,
2013-06-17 05:30:00,77.9,75.7,30.02,SE,125,0.0,4.0,93,0.00,,,0.00,Weather View 32 v70,2013-06-17 09:30:00,
2013-06-17 05:40:00,77.9,75.7,30.03,ESE,116,0.0,4.0,93,0.00,,,0.00,Weather View 32 v70,2013-06-17 09:40:00,
2013-06-17 05:48:00,77.9,75.7,30.03,ESE,116,0.0,4.0,93,0.00,,,0.00,Weather View 32 v70,2013-06-17 09:48:00,
2013-06-17 06:00:00,77.2,75.0,30.03,ENE,68,0.0,4.0,93,0.00,,,0.00,Weather View 32 v70,2013-06-17 10:00:00,
2013-06-17 06:10:00,76.6,74.7,30.03,ENE,68,0.0,4.0,94,0.00,,,0.00,Weather View 32 v70,2013-06-17 10:10:00,
2013-06-17 06:20:00,76.6,74.4,30.03,ENE,68,0.0,4.0,93,0.00,,,0.00,Weather View 32 v70,2013-06-17 10:20:00,
2013-06-17 06:30:00,75.7,73.5,30.03,WNW,284,1.0,3.0,93,0.00,,,0.00,Weather View 32 v70,2013-06-17 10:30:00,
2013-06-17 06:40:00,75.0,73.1,30.03,West,280,3.0,3.0,94,0.00,,,0.00,Weather View 32 v70,2013-06-17 10:40:00,
2013-06-17 06:49:00,75.0,73.1,30.03,West,280,3.0,3.0,94,0.00,,,0.00,Weather View 32 v70,2013-06-17 10:49:00,
2013-06-17 06:50:00,74.7,72.8,30.03,West,280,0.0,3.0,94,0.00,,,0.00,Weather View 32 v70,2013-06-17 10:50:00,
2013-06-17 07:00:00,74.5,73.0,30.03,West,279,0.0,3.0,95,0.00,,,0.00,Weather View 32 v70,2013-06-17 11:00:00,
2013-06-17 07:10:00,74.5,73.0,30.04,West,279,0.0,3.0,95,0.00,,,0.00,Weather View 32 v70,2013-06-17 11:10:00,
2013-06-17 07:20:00,74.8,73.3,30.04,North,9,0.0,3.0,95,0.00,,,0.00,Weather View 32 v70,2013-06-17 11:20:00,
2013-06-17 07:30:00,75.0,73.5,30.04,North,9,0.0,3.0,95,0.00,,,0.00,Weather View 32 v70,2013-06-17 11:30:00,
2013-06-17 07:40:00,75.5,74.0,30.05,North,9,0.0,3.0,95,0.00,,,0.00,Weather View 32 v70,2013-06-17 11:40:00,
2013-06-17 07:49:00,75.5,74.0,30.05,North,9,0.0,3.0,95,0.00,,,0.00,Weather View 32 v70,2013-06-17 11:49:00,
2013-06-17 07:50:00,76.2,74.7,30.05,North,9,0.0,3.0,95,0.00,,,0.00,Weather View 32 v70,2013-06-17 11:50:00,
2013-06-17 08:00:00,77.0,75.1,30.05,North,9,0.0,2.0,94,0.00,,,0.00,Weather View 32 v70,2013-06-17 12:00:00,
2013-06-17 08:10:00,77.5,75.3,30.05,North,9,0.0,2.0,93,0.00,,,0.00,Weather View 32 v70,2013-06-17 12:10:00,
2013-06-17 08:20:00,77.6,75.4,30.05,North,9,0.0,2.0,93,0.00,,,0.00,Weather View 32 v70,2013-06-17 12:20:00,
2013-06-17 08:30:00,77.9,75.4,30.05,North,9,0.0,1.0,92,0.00,,,0.00,Weather View 32 v70,2013-06-17 12:30:00,
2013-06-17 08:40:00,78.3,75.4,30.05,NNE,21,0.0,1.0,91,0.00,,,0.00,Weather View 32 v70,2013-06-17 12:40:00,
2013-06-17 08:50:00,78.8,75.9,30.05,ENE,69,0.0,1.0,91,0.00,,,0.00,Weather View 32 v70,2013-06-17 12:50:00,
2013-06-17 09:00:00,78.8,75.9,30.05,SE,134,0.0,2.0,91,0.00,,,0.00,Weather View 32 v70,2013-06-17 13:00:00,
2013-06-17 09:10:00,78.9,75.7,30.05,SE,138,0.0,3.0,90,0.00,,,0.00,Weather View 32 v70,2013-06-17 13:10:00,
2013-06-17 09:20:00,79.3,76.1,30.05,SE,141,0.0,3.0,90,0.00,,,0.00,Weather View 32 v70,2013-06-17 13:20:00,
2013-06-17 09:30:00,79.4,75.9,30.05,South,176,0.0,3.0,89,0.00,,,0.00,Weather View 32 v70,2013-06-17 13:30:00,
2013-06-17 09:40:00,79.7,76.2,30.05,SSW,196,1.0,3.0,89,0.00,,,0.00,Weather View 32 v70,2013-06-17 13:40:00,
2013-06-17 09:51:00,79.8,75.9,30.05,SSE,160,0.0,3.0,88,0.00,,,0.00,Weather View 32 v70,2013-06-17 13:51:00,
2013-06-17 10:00:00,80.7,76.4,30.05,SE,132,2.0,4.0,87,0.00,,,0.00,Weather View 32 v70,2013-06-17 14:00:00,
2013-06-17 10:10:00,81.1,76.1,30.04,SE,145,1.0,6.0,85,0.00,,,0.00,Weather View 32 v70,2013-06-17 14:10:00,
2013-06-17 10:20:00,81.5,75.8,30.05,SSE,163,0.0,6.0,83,0.00,,,0.00,Weather View 32 v70,2013-06-17 14:20:00,
2013-06-17 10:30:00,82.0,76.3,30.04,WNW,292,0.0,6.0,83,0.00,,,0.00,Weather View 32 v70,2013-06-17 14:30:00,
2013-06-17 10:40:00,82.2,76.1,30.04,WSW,248,1.0,6.0,82,0.00,,,0.00,Weather View 32 v70,2013-06-17 14:40:00,
2013-06-17 10:50:00,83.0,76.5,30.04,West,265,0.0,6.0,81,0.00,,,0.00,Weather View 32 v70,2013-06-17 14:50:00,
2013-06-17 10:52:00,83.0,76.5,30.04,West,265,0.0,6.0,81,0.00,,,0.00,Weather View 32 v70,2013-06-17 14:52:00,
2013-06-17 11:00:00,82.7,76.2,30.04,South,175,0.0,6.0,81,0.00,,,0.00,Weather View 32 v70,2013-06-17 15:00:00,
2013-06-17 11:10:00,83.4,76.2,30.04,SE,142,0.0,5.0,79,0.00,,,0.00,Weather View 32 v70,2013-06-17 15:10:00,
2013-06-17 11:20:00,83.8,76.9,30.04,SE,130,1.0,6.0,80,0.00,,,0.00,Weather View 32 v70,2013-06-17 15:20:00,
2013-06-17 11:30:00,83.9,76.7,30.04,SE,134,0.0,6.0,79,0.00,,,0.00,Weather View 32 v70,2013-06-17 15:30:00,
2013-06-17 11:40:00,84.6,76.6,30.04,SE,132,0.0,6.0,77,0.00,,,0.00,Weather View 32 v70,2013-06-17 15:40:00,
2013-06-17 11:50:00,84.9,76.4,30.03,SE,132,0.0,6.0,76,0.00,,,0.00,Weather View 32 v70,2013-06-17 15:50:00,
2013-06-17 11:52:00,84.9,76.4,30.03,SE,132,0.0,6.0,76,0.00,,,0.00,Weather View 32 v70,2013-06-17 15:52:00,
2013-06-17 12:00:00,85.2,76.7,30.03,SE,132,2.0,6.0,76,0.00,,,0.00,Weather View 32 v70,2013-06-17 16:00:00,
2013-06-17 12:10:00,85.6,77.1,30.02,SE,140,0.0,6.0,76,0.00,,,0.00,Weather View 32 v70,2013-06-17 16:10:00,
2013-06-17 12:20:00,86.1,76.8,30.02,SE,142,3.0,4.0,74,0.00,,,0.00,Weather View 32 v70,2013-06-17 16:20:00,
2013-06-17 13:00:00,87.0,76.8,30.02,ESE,106,2.0,5.0,72,0.00,,,0.00,Weather View 32 v70,2013-06-17 17:00:00,
2013-06-17 13:10:00,88.1,76.6,30.02,SSE,149,0.0,5.0,69,0.00,,,0.00,Weather View 32 v70,2013-06-17 17:10:00,
2013-06-17 13:20:00,88.6,75.7,30.02,SSW,209,0.0,5.0,66,0.00,,,0.00,Weather View 32 v70,2013-06-17 17:20:00,
2013-06-17 13:30:00,89.6,75.7,30.02,SSE,165,0.0,6.0,64,0.00,,,0.00,Weather View 32 v70,2013-06-17 17:30:00,
2013-06-17 13:40:00,89.5,75.2,30.01,WSW,240,0.0,6.0,63,0.00,,,0.00,Weather View 32 v70,2013-06-17 17:40:00,
2013-06-17 13:50:00,89.4,76.9,30.01,SSW,194,1.0,7.0,67,0.00,,,0.00,Weather View 32 v70,2013-06-17 17:50:00,
2013-06-17 13:54:00,89.4,76.9,30.01,SSW,194,1.0,7.0,67,0.00,,,0.00,Weather View 32 v70,2013-06-17 17:54:00,
2013-06-17 14:00:00,89.0,75.6,30.01,SSE,153,4.0,7.0,65,0.00,,,0.00,Weather View 32 v70,2013-06-17 18:00:00,
2013-06-17 14:10:00,89.1,74.8,30.01,WNW,288,1.0,7.0,63,0.00,,,0.00,Weather View 32 v70,2013-06-17 18:10:00,
2013-06-17 14:20:00,89.4,74.6,30.00,WNW,292,0.0,7.0,62,0.00,,,0.00,Weather View 32 v70,2013-06-17 18:20:00,
2013-06-17 14:30:00,90.5,76.1,30.00,SW,227,2.0,7.0,63,0.00,,,0.00,Weather View 32 v70,2013-06-17 18:30:00,
2013-06-17 14:40:00,90.4,74.1,30.00,WNW,291,2.0,7.0,59,0.00,,,0.00,Weather View 32 v70,2013-06-17 18:40:00,
2013-06-17 14:50:00,90.4,75.1,29.99,SW,217,1.0,7.0,61,0.00,,,0.00,Weather View 32 v70,2013-06-17 18:50:00,
2013-06-17 14:54:00,90.4,75.1,29.99,SW,217,1.0,7.0,61,0.00,,,0.00,Weather View 32 v70,2013-06-17 18:54:00,
2013-06-17 15:00:00,90.4,73.5,29.99,SE,144,0.0,7.0,58,0.00,,,0.00,Weather View 32 v70,2013-06-17 19:00:00,
2013-06-17 15:10:00,91.0,74.1,29.99,WSW,239,0.0,7.0,58,0.00,,,0.00,Weather View 32 v70,2013-06-17 19:10:00,
2013-06-17 15:20:00,90.8,73.9,29.99,WNW,293,0.0,7.0,58,0.00,,,0.00,Weather View 32 v70,2013-06-17 19:20:00,
2013-06-17 15:30:00,91.2,75.3,29.98,NNW,336,2.0,7.0,60,0.00,,,0.00,Weather View 32 v70,2013-06-17 19:30:00,
2013-06-17 15:40:00,91.0,73.6,29.98,SSW,209,1.0,7.0,57,0.00,,,0.00,Weather View 32 v70,2013-06-17 19:40:00,
2013-06-17 15:50:00,91.3,73.9,29.98,SSE,162,0.0,7.0,57,0.00,,,0.00,Weather View 32 v70,2013-06-17 19:50:00,
2013-06-17 15:55:00,91.3,73.9,29.98,SSE,162,0.0,7.0,57,0.00,,,0.00,Weather View 32 v70,2013-06-17 19:55:00,
2013-06-17 16:00:00,91.5,76.1,29.98,South,184,0.0,7.0,61,0.00,,,0.00,Weather View 32 v70,2013-06-17 20:00:00,
2013-06-17 16:10:00,91.9,75.5,29.97,SW,219,0.0,7.0,59,0.00,,,0.00,Weather View 32 v70,2013-06-17 20:10:00,
2013-06-17 16:20:00,91.5,73.5,29.97,SSE,163,2.0,7.0,56,0.00,,,0.00,Weather View 32 v70,2013-06-17 20:20:00,
2013-06-17 16:30:00,91.1,73.7,29.97,South,171,2.0,7.0,57,0.00,,,0.00,Weather View 32 v70,2013-06-17 20:30:00,
2013-06-17 16:40:00,91.4,73.4,29.96,SSE,164,1.0,7.0,56,0.00,,,0.00,Weather View 32 v70,2013-06-17 20:40:00,
2013-06-17 16:50:00,91.4,73.4,29.95,SSE,165,0.0,7.0,56,0.00,,,0.00,Weather View 32 v70,2013-06-17 20:50:00,
2013-06-17 16:55:00,91.4,73.4,29.95,SSE,165,0.0,7.0,56,0.00,,,0.00,Weather View 32 v70,2013-06-17 20:55:00,
2013-06-17 17:00:00,91.1,74.7,29.95,West,269,1.0,7.0,59,0.00,,,0.00,Weather View 32 v70,2013-06-17 21:00:00,
2013-06-17 17:10:00,90.9,75.0,29.95,SSE,161,2.0,7.0,60,0.00,,,0.00,Weather View 32 v70,2013-06-17 21:10:00,
2013-06-17 17:20:00,91.9,72.8,29.94,SSW,195,2.0,6.0,54,0.00,,,0.00,Weather View 32 v70,2013-06-17 21:20:00,
2013-06-17 17:30:00,91.9,74.4,29.95,WSW,258,1.0,9.0,57,0.00,,,0.00,Weather View 32 v70,2013-06-17 21:30:00,
2013-06-17 17:40:00,91.9,74.4,29.95,WSW,257,2.0,9.0,57,0.00,,,0.00,Weather View 32 v70,2013-06-17 21:40:00,
2013-06-17 17:50:00,91.8,75.4,29.95,SSW,213,0.0,9.0,59,0.00,,,0.00,Weather View 32 v70,2013-06-17 21:50:00,
2013-06-17 17:56:00,91.8,75.4,29.95,SSW,213,0.0,9.0,59,0.00,,,0.00,Weather View 32 v70,2013-06-17 21:56:00,
2013-06-17 18:00:00,91.5,75.1,29.95,WSW,246,0.0,9.0,59,0.00,,,0.00,Weather View 32 v70,2013-06-17 22:00:00,
2013-06-17 18:10:00,90.1,75.3,29.95,WNW,283,0.0,9.0,62,0.00,,,0.00,Weather View 32 v70,2013-06-17 22:10:00,
2013-06-17 18:20:00,89.7,74.9,29.96,SW,231,0.0,9.0,62,0.00,,,0.00,Weather View 32 v70,2013-06-17 22:20:00,
2013-06-17 18:30:00,87.1,75.6,29.96,ENE,69,10.0,13.0,69,0.00,,,0.00,Weather View 32 v70,2013-06-17 22:30:00,
2013-06-17 18:40:00,85.0,75.7,29.96,ENE,66,8.0,13.0,74,0.00,,,0.00,Weather View 32 v70,2013-06-17 22:40:00,
2013-06-17 18:50:00,84.1,74.9,29.96,ESE,102,1.0,13.0,74,0.00,,,0.00,Weather View 32 v70,2013-06-17 22:50:00,
2013-06-17 18:57:00,84.1,74.9,29.96,ESE,102,1.0,13.0,74,0.00,,,0.00,Weather View 32 v70,2013-06-17 22:57:00,
2013-06-17 19:10:00,84.1,76.1,29.96,ESE,111,3.0,13.0,77,0.00,,,0.00,Weather View 32 v70,2013-06-17 23:10:00,
2013-06-17 19:20:00,83.7,75.7,29.96,SSE,149,1.0,13.0,77,0.00,,,0.00,Weather View 32 v70,2013-06-17 23:20:00,
2013-06-17 19:30:00,83.6,76.0,29.96,ESE,102,4.0,13.0,78,0.00,,,0.00,Weather View 32 v70,2013-06-17 23:30:00,
2013-06-17 19:40:00,83.5,76.6,29.96,ESE,106,2.0,8.0,80,0.00,,,0.00,Weather View 32 v70,2013-06-17 23:40:00,
2013-06-17 19:50:00,83.2,76.7,29.97,East,86,3.0,8.0,81,0.00,,,0.00,Weather View 32 v70,2013-06-17 23:50:00,
2013-06-17 19:57:00,83.2,76.7,29.97,East,86,3.0,8.0,81,0.00,,,0.00,Weather View 32 v70,2013-06-17 23:57:00,
2013-06-17 20:00:00,83.0,77.3,29.97,ESE,113,0.0,8.0,83,0.00,,,0.00,Weather View 32 v70,2013-06-18 00:00:00,
2013-06-17 20:10:00,83.2,77.1,29.97,ENE,74,4.0,8.0,82,0.00,,,0.00,Weather View 32 v70,2013-06-18 00:10:00,
2013-06-17 20:20:00,82.8,77.1,29.98,ESE,111,1.0,8.0,83,0.00,,,0.00,Weather View 32 v70,2013-06-18 00:20:00,
2013-06-17 20:30:00,82.7,77.7,29.98,ESE,117,1.0,8.0,85,0.00,,,0.00,Weather View 32 v70,2013-06-18 00:30:00,
2013-06-17 20:40:00,82.8,77.8,29.99,SE,132,0.0,8.0,85,0.00,,,0.00,Weather View 32 v70,2013-06-18 00:40:00,
2013-06-17 20:50:00,82.7,77.3,29.99,SE,144,5.0,5.0,84,0.00,,,0.00,Weather View 32 v70,2013-06-18 00:50:00,
2013-06-17 20:58:00,82.7,77.3,29.99,SE,144,5.0,5.0,84,0.00,,,0.00,Weather View 32 v70,2013-06-18 00:58:00,
2013-06-17 21:00:00,82.6,77.6,29.99,SE,140,1.0,5.0,85,0.00,,,0.00,Weather View 32 v70,2013-06-18 01:00:00,
2013-06-17 21:10:00,82.5,77.5,29.99,SE,134,3.0,6.0,85,0.00,,,0.00,Weather View 32 v70,2013-06-18 01:10:00,
2013-06-17 21:20:00,82.4,76.7,30.00,SE,130,3.0,6.0,83,0.00,,,0.00,Weather View 32 v70,2013-06-18 01:20:00,
2013-06-17 21:30:00,82.3,77.0,30.00,SE,136,1.0,6.0,84,0.00,,,0.00,Weather View 32 v70,2013-06-18 01:30:00,
2013-06-17 21:40:00,82.4,76.7,30.00,SSE,153,2.0,6.0,83,0.00,,,0.00,Weather View 32 v70,2013-06-18 01:40:00,
2013-06-17 21:50:00,82.3,77.0,30.00,SSE,157,0.0,7.0,84,0.00,,,0.00,Weather View 32 v70,2013-06-18 01:50:00,
2013-06-17 21:58:00,82.3,77.0,30.00,SSE,157,0.0,7.0,84,0.00,,,0.00,Weather View 32 v70,2013-06-18 01:58:00,
2013-06-17 22:00:00,81.6,75.9,30.01,South,176,0.0,7.0,83,0.00,,,0.00,Weather View 32 v70,2013-06-18 02:00:00,
2013-06-17 22:10:00,81.0,75.3,30.01,South,176,0.0,7.0,83,0.00,,,0.00,Weather View 32 v70,2013-06-18 02:10:00,
2013-06-17 22:20:00,80.5,75.2,30.01,SSE,164,0.0,7.0,84,0.00,,,0.00,Weather View 32 v70,2013-06-18 02:20:00,
2013-06-17 22:30:00,80.2,74.9,30.01,SSW,202,0.0,7.0,84,0.00,,,0.00,Weather View 32 v70,2013-06-18 02:30:00,
2013-06-17 22:40:00,80.0,74.3,30.02,SSW,202,0.0,7.0,83,0.00,,,0.00,Weather View 32 v70,2013-06-18 02:40:00,
2013-06-17 22:50:00,79.5,74.6,30.02,SSW,202,0.0,3.0,85,0.00,,,0.00,Weather View 32 v70,2013-06-18 02:50:00,
2013-06-17 22:59:00,79.5,74.6,30.02,SSW,202,0.0,3.0,85,0.00,,,0.00,Weather View 32 v70,2013-06-18 02:59:00,
2013-06-17 23:00:00,79.4,73.8,30.02,SSW,202,0.0,3.0,83,0.00,,,0.00,Weather View 32 v70,2013-06-18 03:00:00,
2013-06-17 23:10:00,79.1,73.8,30.02,SSW,202,0.0,3.0,84,0.00,,,0.00,Weather View 32 v70,2013-06-18 03:10:00,
2013-06-17 23:20:00,78.9,73.6,30.01,SSW,202,0.0,2.0,84,0.00,,,0.00,Weather View 32 v70,2013-06-18 03:20:00,
2013-06-17 23:30:00,78.6,73.3,30.01,SSW,202,0.0,0.0,84,0.00,,,0.00,Weather View 32 v70,2013-06-18 03:30:00,
2013-06-17 23:40:00,77.9,73.0,30.02,SSW,202,0.0,0.0,85,0.00,,,0.00,Weather View 32 v70,2013-06-18 03:40:00,
2013-06-17 23:50:00,77.6,73.1,30.02,SSW,202,0.0,0.0,86,0.00,,,0.00,Weather View 32 v70,2013-06-18 03:50:00,
2013-06-17 23:59:00,77.6,73.1,30.02,SSW,202,0.0,0.0,86,0.00,,,0.00,Weather View 32 v70,2013-06-18 03:59:00,